Pound, Wisconsin
Current Conditions -  °F | °C
As of 6:15 PM on Wednesday 22 Oct 2014 (Local Time) from KOCQ Reporting Station
Clear Clear  
Wind Chill: 39°   Ceiling: Unl
Heat Index: 42°   Visibility: 2.5mi
Dew Point: 39°   Wind: 5mph
Humidity: 89%   Direction: 140°SE
Pressure: 30.27"   Gusts: NA
Location:  45.09°N, 88.03°W
Report Text: KOCQ 222315Z AUTO 14004KT 2 1/2SM CLR 05/04 A3027 RMK AO1 T00530037
Loading
Personal Weather Stations






























Interactive Weather Map
Tropical Storm Tracking
New forecast layout! Learn more

10-Day Weather Forecast

Advertisements
Track Severe Weather on mobile